createdAt,value
2017-07-21T00:01:06.094Z,14.77
2017-07-21T00:03:33.955Z,14.70
2017-07-21T00:06:01.527Z,15.03
2017-07-21T00:08:29.052Z,15.43
2017-07-21T00:10:56.588Z,14.93
2017-07-21T00:13:24.102Z,14.83
2017-07-21T00:15:51.921Z,14.33
2017-07-21T00:18:19.456Z,14.90
2017-07-21T00:20:46.968Z,17.53
2017-07-21T00:23:14.494Z,15.40
2017-07-21T00:25:42.018Z,14.40
2017-07-21T00:28:09.831Z,14.93
2017-07-21T00:30:37.341Z,14.90
2017-07-21T00:33:04.867Z,14.37
2017-07-21T00:35:32.389Z,14.93
2017-07-21T00:37:59.911Z,14.07
2017-07-21T00:40:27.695Z,14.23
2017-07-21T00:42:55.199Z,19.27
2017-07-21T00:45:22.707Z,14.90
2017-07-21T00:47:50.243Z,14.53
2017-07-21T00:50:17.755Z,14.30
2017-07-21T00:52:45.566Z,14.30
2017-07-21T00:55:13.082Z,14.63
2017-07-21T00:57:40.605Z,15.30
2017-07-21T01:00:08.403Z,14.27
2017-07-21T01:02:35.911Z,15.43
2017-07-21T01:05:03.426Z,15.00
2017-07-21T01:07:30.946Z,16.10
2017-07-21T01:09:58.496Z,15.33
2017-07-21T01:12:26.301Z,14.23
2017-07-21T01:14:53.818Z,17.50
2017-07-21T01:17:21.331Z,15.93
2017-07-21T01:19:48.872Z,15.80
2017-07-21T01:22:16.387Z,15.60
2017-07-21T01:24:43.899Z,18.60
2017-07-21T01:27:11.422Z,15.80
2017-07-21T01:29:39.238Z,15.57
2017-07-21T01:32:06.773Z,16.23
2017-07-21T01:34:34.295Z,16.67
2017-07-21T01:37:01.825Z,15.67
2017-07-21T01:39:29.327Z,17.50
2017-07-21T01:41:57.142Z,15.80
2017-07-21T01:44:24.659Z,16.33
2017-07-21T01:46:52.176Z,16.10
2017-07-21T01:49:19.713Z,14.87
2017-07-21T01:51:47.222Z,13.57
2017-07-21T01:54:14.759Z,15.73
2017-07-21T01:56:42.257Z,12.13
2017-07-21T01:59:10.065Z,13.33
2017-07-21T02:01:37.583Z,12.83
2017-07-21T02:04:05.087Z,14.13
2017-07-21T02:06:32.652Z,14.10
2017-07-21T02:09:00.188Z,15.43
2017-07-21T02:11:28.008Z,13.17
2017-07-21T02:13:55.532Z,14.27
2017-07-21T02:16:23.037Z,12.83
2017-07-21T02:18:50.562Z,13.20
2017-07-21T02:21:18.084Z,15.77
2017-07-21T02:23:45.602Z,11.63
2017-07-21T02:26:13.132Z,13.03
2017-07-21T02:28:40.927Z,12.10
2017-07-21T02:31:08.456Z,12.43
2017-07-21T02:33:35.986Z,13.10
2017-07-21T02:36:03.515Z,12.87
2017-07-21T02:38:31.039Z,12.40
2017-07-21T02:40:58.831Z,12.20
2017-07-21T02:43:26.354Z,13.50
2017-07-21T02:45:53.874Z,12.73
2017-07-21T02:48:21.402Z,12.47
2017-07-21T02:50:48.941Z,12.60
2017-07-21T02:53:16.470Z,12.97
2017-07-21T02:55:43.980Z,12.60
2017-07-21T02:58:11.816Z,13.10
2017-07-21T03:00:39.355Z,13.50
2017-07-21T03:03:06.881Z,12.67
2017-07-21T03:05:34.433Z,13.57
2017-07-21T03:08:01.952Z,13.43
2017-07-21T03:10:29.476Z,13.73
2017-07-21T03:12:56.993Z,13.57
2017-07-21T03:15:24.523Z,14.03
2017-07-21T03:17:52.040Z,13.20
2017-07-21T03:20:19.553Z,13.60
2017-07-21T03:22:58.766Z,13.03
2017-07-21T03:25:26.302Z,14.07
2017-07-21T03:27:53.823Z,12.90
2017-07-21T03:30:21.375Z,15.20
2017-07-21T03:32:48.898Z,13.83
2017-07-21T03:35:16.427Z,14.90
2017-07-21T03:37:43.930Z,14.80
2017-07-21T03:40:11.739Z,13.77
2017-07-21T03:42:39.247Z,14.00
2017-07-21T03:45:06.764Z,14.53
2017-07-21T03:47:34.367Z,13.13
2017-07-21T03:50:02.890Z,14.03
2017-07-21T03:52:30.699Z,11.30
2017-07-21T03:54:58.210Z,13.57
2017-07-21T03:57:25.735Z,12.07
2017-07-21T03:59:53.249Z,12.73
2017-07-21T04:02:20.780Z,12.97
2017-07-21T04:04:48.613Z,11.40
2017-07-21T04:07:16.150Z,11.93
2017-07-21T04:09:43.668Z,12.93
2017-07-21T04:12:11.221Z,12.20
2017-07-21T04:14:38.730Z,10.83
2017-07-21T04:17:06.526Z,12.50
2017-07-21T04:19:34.034Z,13.53
2017-07-21T04:22:01.548Z,11.83
2017-07-21T04:24:29.073Z,11.67
2017-07-21T04:26:56.595Z,11.77
2017-07-21T04:29:24.394Z,12.60
2017-07-21T04:31:51.935Z,12.07
2017-07-21T04:34:19.459Z,12.20
2017-07-21T04:36:47.009Z,12.93
2017-07-21T04:39:14.539Z,13.07
2017-07-21T04:41:42.319Z,14.13
2017-07-21T04:44:09.835Z,11.30
2017-07-21T04:46:37.336Z,14.40
2017-07-21T04:49:04.870Z,11.40
2017-07-21T04:51:32.383Z,11.87
2017-07-21T04:54:00.183Z,11.77
2017-07-21T04:56:27.708Z,11.37
2017-07-21T04:58:55.241Z,11.07
2017-07-21T05:01:22.773Z,10.43
2017-07-21T05:03:50.300Z,11.77
2017-07-21T05:06:18.132Z,10.37
2017-07-21T05:08:45.664Z,11.60
2017-07-21T05:11:13.191Z,12.07
2017-07-21T05:13:40.722Z,11.40
2017-07-21T05:16:08.266Z,11.17
2017-07-21T05:18:36.061Z,11.70
2017-07-21T05:21:03.562Z,18.63
2017-07-21T05:23:31.080Z,10.60
2017-07-21T05:25:58.615Z,11.50
2017-07-21T05:28:26.114Z,11.30
2017-07-21T05:30:53.899Z,11.30
2017-07-21T05:33:21.403Z,8.93
2017-07-21T05:35:48.920Z,12.43
2017-07-21T05:38:16.436Z,11.10
2017-07-21T05:40:43.951Z,12.83
2017-07-21T05:43:11.717Z,9.83
2017-07-21T05:45:39.226Z,9.40
2017-07-21T05:48:06.758Z,10.30
2017-07-21T05:50:34.379Z,9.80
2017-07-21T05:53:01.906Z,10.30
2017-07-21T05:55:29.687Z,9.80
2017-07-21T05:57:57.222Z,10.30
2017-07-21T06:00:24.768Z,9.80
2017-07-21T06:02:52.301Z,9.90
2017-07-21T06:05:19.833Z,10.83
2017-07-21T06:07:47.634Z,9.50
2017-07-21T06:10:15.131Z,9.47
2017-07-21T06:12:42.644Z,8.30
2017-07-21T06:15:11.000Z,9.63
2017-07-21T06:17:38.525Z,10.50
2017-07-21T06:20:06.328Z,8.93
2017-07-21T06:22:33.861Z,9.77
2017-07-21T06:25:01.407Z,8.60
2017-07-21T06:27:28.984Z,9.70
2017-07-21T06:29:56.497Z,10.37
2017-07-21T06:32:24.308Z,8.80
2017-07-21T06:34:51.823Z,9.00
2017-07-21T06:37:19.322Z,8.73
2017-07-21T06:39:46.849Z,9.67
2017-07-21T06:42:14.364Z,7.93
2017-07-21T06:44:42.178Z,7.70
2017-07-21T06:47:09.698Z,7.77
2017-07-21T06:49:37.216Z,9.57
2017-07-21T06:52:04.745Z,8.27
2017-07-21T06:54:32.266Z,9.63
2017-07-21T06:57:00.069Z,8.13
2017-07-21T06:59:27.595Z,9.20
2017-07-21T07:01:55.112Z,8.03
2017-07-21T07:04:22.652Z,8.50
2017-07-21T07:06:50.150Z,9.77
2017-07-21T07:09:17.671Z,9.23
2017-07-21T07:11:45.454Z,9.63
2017-07-21T07:14:12.981Z,7.80
2017-07-21T07:16:40.484Z,9.97
2017-07-21T07:19:08.271Z,9.27
2017-07-21T07:21:35.789Z,10.60
2017-07-21T07:24:03.324Z,10.53
2017-07-21T07:26:30.842Z,9.90
2017-07-21T07:28:58.369Z,8.50
2017-07-21T07:31:26.161Z,8.80
2017-07-21T07:33:53.684Z,9.40
2017-07-21T07:36:21.201Z,9.30
2017-07-21T07:38:48.727Z,9.00
2017-07-21T07:41:16.240Z,9.23
2017-07-21T07:43:44.057Z,9.03
2017-07-21T07:46:11.584Z,11.63
2017-07-21T07:48:39.102Z,10.37
2017-07-21T07:51:06.624Z,9.30
2017-07-21T07:53:34.126Z,9.83
2017-07-21T07:56:01.942Z,10.90
2017-07-21T07:58:29.471Z,8.93
2017-07-21T08:00:56.987Z,10.50
2017-07-21T08:03:24.525Z,10.47
2017-07-21T08:05:52.046Z,11.40
2017-07-21T08:08:19.832Z,9.87
2017-07-21T08:10:47.333Z,10.77
2017-07-21T08:13:14.833Z,10.50
2017-07-21T08:15:42.354Z,11.80
2017-07-21T08:18:09.863Z,10.50
2017-07-21T08:20:37.728Z,9.57
2017-07-21T08:23:05.325Z,15.37
2017-07-21T08:25:32.850Z,11.33
2017-07-21T08:28:00.374Z,10.43
2017-07-21T08:30:27.882Z,12.20
2017-07-21T08:32:55.693Z,11.70
2017-07-21T08:35:23.217Z,10.33
2017-07-21T08:37:50.769Z,11.80
2017-07-21T08:40:18.323Z,10.67
2017-07-21T08:42:45.833Z,10.43
2017-07-21T08:45:13.649Z,11.90
2017-07-21T08:47:41.159Z,16.93
2017-07-21T08:50:08.669Z,9.70
2017-07-21T08:52:36.272Z,10.50
2017-07-21T08:55:03.796Z,10.43
2017-07-21T08:57:31.605Z,10.00
2017-07-21T08:59:59.127Z,13.63
2017-07-21T09:02:26.647Z,10.23
2017-07-21T09:04:54.202Z,10.63
2017-07-21T09:07:21.732Z,11.97
2017-07-21T09:09:49.546Z,9.70
2017-07-21T09:12:17.055Z,9.13
2017-07-21T09:14:44.570Z,11.83
2017-07-21T09:17:12.099Z,9.87
2017-07-21T09:19:39.612Z,10.30
2017-07-21T09:22:07.403Z,12.03
2017-07-21T09:24:34.928Z,10.53
2017-07-21T09:27:02.442Z,9.77
2017-07-21T09:29:29.971Z,11.93
2017-07-21T09:31:57.492Z,14.57
2017-07-21T09:34:25.312Z,12.00
2017-07-21T09:36:52.858Z,10.90
2017-07-21T09:39:20.371Z,12.50
2017-07-21T09:41:47.879Z,9.40
2017-07-21T09:44:15.391Z,9.40
2017-07-21T09:46:43.171Z,9.37
2017-07-21T09:49:10.710Z,10.87
2017-07-21T09:51:38.248Z,11.30
2017-07-21T09:54:05.764Z,11.30
2017-07-21T09:56:33.290Z,12.17
2017-07-21T09:59:01.120Z,12.77
2017-07-21T10:01:28.645Z,10.63
2017-07-21T10:03:56.411Z,11.63
2017-07-21T10:06:23.950Z,11.77
2017-07-21T10:08:51.466Z,11.90
2017-07-21T10:11:19.312Z,11.27
2017-07-21T10:13:46.821Z,11.00
2017-07-21T10:16:14.337Z,10.20
2017-07-21T10:18:41.883Z,10.90
2017-07-21T10:21:09.400Z,10.73
2017-07-21T10:23:37.208Z,10.37
2017-07-21T10:26:04.749Z,11.60
2017-07-21T10:28:32.287Z,11.00
2017-07-21T10:30:59.823Z,10.33
2017-07-21T10:33:27.365Z,10.30
2017-07-21T10:35:55.171Z,9.97
2017-07-21T10:38:23.242Z,10.13
2017-07-21T10:40:50.752Z,11.40
2017-07-21T10:43:18.278Z,9.93
2017-07-21T10:45:45.833Z,9.57
2017-07-21T10:48:13.622Z,11.03
2017-07-21T10:50:41.159Z,9.73
2017-07-21T10:53:08.740Z,11.00
2017-07-21T10:55:36.267Z,10.33
2017-07-21T10:58:03.794Z,10.23
2017-07-21T11:00:31.581Z,9.83
2017-07-21T11:02:59.091Z,9.77
2017-07-21T11:05:26.602Z,11.10
2017-07-21T11:07:54.134Z,9.10
2017-07-21T11:10:21.646Z,8.17
2017-07-21T11:12:49.434Z,8.43
2017-07-21T11:15:16.981Z,9.50
2017-07-21T11:17:44.497Z,10.57
2017-07-21T11:20:12.005Z,8.63
2017-07-21T11:22:39.508Z,8.90
2017-07-21T11:25:07.329Z,8.17
2017-07-21T11:27:34.857Z,8.77
2017-07-21T11:30:02.377Z,7.67
2017-07-21T11:32:29.886Z,8.90
2017-07-21T11:34:57.692Z,7.63
2017-07-21T11:37:25.202Z,7.63
2017-07-21T11:39:52.724Z,8.97
2017-07-21T11:42:20.517Z,8.43
2017-07-21T11:44:48.044Z,11.33
2017-07-21T11:47:15.565Z,8.17
2017-07-21T11:49:43.400Z,8.50
2017-07-21T11:52:10.897Z,8.13
2017-07-21T11:54:38.409Z,7.00
2017-07-21T11:57:06.210Z,7.70
2017-07-21T11:59:33.741Z,7.63
2017-07-21T12:02:01.237Z,7.00
2017-07-21T12:04:29.041Z,7.50
2017-07-21T12:06:56.559Z,5.53
2017-07-21T12:09:24.075Z,6.60
2017-07-21T12:11:51.892Z,6.60
2017-07-21T12:14:19.406Z,6.90
2017-07-21T12:16:46.930Z,6.47
2017-07-21T12:21:51.462Z,7.53
2017-07-21T12:24:19.263Z,7.00
2017-07-21T12:26:46.789Z,7.57
2017-07-21T12:29:14.350Z,5.90
2017-07-21T12:31:42.198Z,6.00
2017-07-21T12:34:09.716Z,6.50
2017-07-21T12:36:37.233Z,7.40
2017-07-21T12:39:05.015Z,5.50
2017-07-21T12:41:32.527Z,6.50
2017-07-21T12:44:00.086Z,6.43
2017-07-21T12:46:27.905Z,6.67
2017-07-21T12:48:55.415Z,7.37
2017-07-21T12:51:22.914Z,6.67
2017-07-21T12:53:50.435Z,6.47
2017-07-21T12:56:17.941Z,5.20
2017-07-21T12:58:45.739Z,5.33
2017-07-21T13:01:13.257Z,5.10
2017-07-21T13:03:40.757Z,5.10
2017-07-21T13:06:08.277Z,4.60
2017-07-21T13:08:35.812Z,5.17
2017-07-21T13:11:03.606Z,5.17
2017-07-21T13:13:31.128Z,5.50
2017-07-21T13:15:58.636Z,5.33
2017-07-21T13:18:26.155Z,4.07
2017-07-21T13:20:53.670Z,4.40
2017-07-21T13:23:21.200Z,7.70
2017-07-21T13:25:48.701Z,3.90
2017-07-21T13:28:16.496Z,4.47
2017-07-21T13:30:44.021Z,5.13
2017-07-21T13:33:11.546Z,5.17
2017-07-21T13:35:39.076Z,4.90
2017-07-21T13:38:06.589Z,4.63
2017-07-21T13:40:34.384Z,4.33
2017-07-21T13:43:01.899Z,4.27
2017-07-21T13:45:29.423Z,3.83
2017-07-21T13:47:56.942Z,4.20
2017-07-21T13:50:24.508Z,6.40
2017-07-21T13:52:52.294Z,4.33
2017-07-21T13:55:19.797Z,3.30
2017-07-21T13:57:47.297Z,3.13
2017-07-21T14:00:14.841Z,3.67
2017-07-21T14:02:42.374Z,3.60
2017-07-21T14:05:10.170Z,3.13
2017-07-21T14:07:37.708Z,3.43
2017-07-21T14:10:05.955Z,3.00
2017-07-21T14:12:33.506Z,3.10
2017-07-21T14:15:01.032Z,2.83
2017-07-21T14:17:28.828Z,3.37
2017-07-21T14:19:56.343Z,6.17
2017-07-21T14:22:23.861Z,5.10
2017-07-21T14:24:51.392Z,3.73
2017-07-21T14:27:18.899Z,5.57
2017-07-21T14:29:46.678Z,5.00
2017-07-21T14:32:14.214Z,4.00
2017-07-21T14:34:41.717Z,5.53
2017-07-21T14:37:09.256Z,3.80
2017-07-21T14:39:36.770Z,4.03
2017-07-21T14:42:04.584Z,3.20
2017-07-21T14:44:32.104Z,4.33
2017-07-21T14:46:59.620Z,5.10
2017-07-21T14:49:27.129Z,5.50
2017-07-21T14:51:54.629Z,3.67
2017-07-21T14:54:22.425Z,3.27
2017-07-21T14:56:49.932Z,3.40
2017-07-21T14:59:17.450Z,4.13
2017-07-21T15:01:44.976Z,6.80
2017-07-21T15:04:12.483Z,3.13
2017-07-21T15:06:40.270Z,2.97
2017-07-21T15:09:07.804Z,3.13
2017-07-21T15:11:35.328Z,2.70
2017-07-21T15:14:02.850Z,2.93
2017-07-21T15:16:30.483Z,4.27
2017-07-21T15:18:58.266Z,4.50
2017-07-21T15:21:25.774Z,4.67
2017-07-21T15:23:53.290Z,5.00
2017-07-21T15:26:20.851Z,7.47
2017-07-21T15:28:48.372Z,6.53
2017-07-21T15:31:16.182Z,7.10
2017-07-21T15:33:43.699Z,6.97
2017-07-21T15:36:11.299Z,8.70
2017-07-21T15:38:38.804Z,6.40
2017-07-21T15:41:06.315Z,5.67
2017-07-21T15:43:33.874Z,4.30
2017-07-21T15:46:01.392Z,5.40
2017-07-21T15:48:29.199Z,6.77
2017-07-21T15:50:56.744Z,5.33
2017-07-21T15:53:24.264Z,5.80
2017-07-21T15:55:51.781Z,5.47
2017-07-21T15:58:19.303Z,7.07
2017-07-21T16:00:47.099Z,6.43
2017-07-21T16:03:14.594Z,6.77
2017-07-21T16:05:42.129Z,6.37
2017-07-21T16:08:09.665Z,7.40
2017-07-21T16:10:37.210Z,5.20
2017-07-21T16:13:05.013Z,5.80
2017-07-21T16:15:32.526Z,5.10
2017-07-21T16:18:00.052Z,6.83
2017-07-21T16:20:27.565Z,8.63
2017-07-21T16:22:55.079Z,12.67
2017-07-21T16:25:22.887Z,6.43
2017-07-21T16:27:50.399Z,9.53
2017-07-21T16:30:17.913Z,7.10
2017-07-21T16:32:45.443Z,7.63
2017-07-21T16:35:12.949Z,5.40
2017-07-21T16:37:40.744Z,6.13
2017-07-21T16:40:08.259Z,4.60
2017-07-21T16:42:35.765Z,4.93
2017-07-21T16:45:03.287Z,5.40
2017-07-21T16:47:30.802Z,5.00
2017-07-21T16:49:58.581Z,4.47
2017-07-21T16:52:26.883Z,4.13
2017-07-21T16:54:54.411Z,4.00
2017-07-21T16:57:21.934Z,4.70
2017-07-21T16:59:49.442Z,3.83
2017-07-21T17:02:17.246Z,3.67
2017-07-21T17:04:44.762Z,3.57
2017-07-21T17:07:12.318Z,3.80
2017-07-21T17:09:39.843Z,5.53
2017-07-21T17:12:07.352Z,3.60
2017-07-21T17:14:35.131Z,3.93
2017-07-21T17:17:02.651Z,3.87
2017-07-21T17:19:30.146Z,3.57
2017-07-21T17:21:57.661Z,4.10
2017-07-21T17:24:25.198Z,5.93
2017-07-21T17:26:52.750Z,5.73
2017-07-21T17:29:20.321Z,4.37
2017-07-21T17:31:47.851Z,5.03
2017-07-21T17:34:15.414Z,2.70
2017-07-21T17:36:43.307Z,3.23
2017-07-21T17:39:10.870Z,3.90
2017-07-21T17:41:38.429Z,5.10
2017-07-21T17:44:06.349Z,5.60
2017-07-21T17:46:33.853Z,4.33
2017-07-21T17:49:01.382Z,3.80
2017-07-21T17:51:29.166Z,3.77
2017-07-21T17:53:56.859Z,3.50
2017-07-21T17:56:24.376Z,3.40
2017-07-21T17:58:51.904Z,5.43
2017-07-21T18:01:19.435Z,5.07
2017-07-21T18:03:47.229Z,4.37
2017-07-21T18:06:14.748Z,3.40
2017-07-21T18:08:42.260Z,3.60
2017-07-21T18:11:09.790Z,5.17
2017-07-21T18:13:37.295Z,3.93
2017-07-21T18:16:05.132Z,4.93
2017-07-21T18:18:32.658Z,10.07
2017-07-21T18:21:00.205Z,5.60
2017-07-21T18:23:27.725Z,4.20
2017-07-21T18:25:55.236Z,3.87
2017-07-21T18:28:23.021Z,3.13
2017-07-21T18:30:50.534Z,3.77
2017-07-21T18:33:18.045Z,3.67
2017-07-21T18:35:45.578Z,4.37
2017-07-21T18:38:13.107Z,3.73
2017-07-21T18:40:40.915Z,3.50
2017-07-21T18:43:08.424Z,4.03
2017-07-21T18:45:35.924Z,3.90
2017-07-21T18:48:03.447Z,4.27
2017-07-21T18:50:30.958Z,4.20
2017-07-21T18:52:58.748Z,4.03
2017-07-21T18:55:26.258Z,5.23
2017-07-21T18:57:53.788Z,4.43
2017-07-21T19:00:21.321Z,5.37
2017-07-21T19:02:48.849Z,4.60
2017-07-21T19:05:16.657Z,4.37
2017-07-21T19:07:45.079Z,4.97
2017-07-21T19:10:12.615Z,5.50
2017-07-21T19:12:40.137Z,5.00
2017-07-21T19:15:07.631Z,5.20
2017-07-21T19:17:35.454Z,5.40
2017-07-21T19:20:02.981Z,4.70
2017-07-21T19:22:30.512Z,8.77
2017-07-21T19:24:58.025Z,7.13
2017-07-21T19:27:25.544Z,5.50
2017-07-21T19:29:53.367Z,5.97
2017-07-21T19:32:20.891Z,5.90
2017-07-21T19:34:48.392Z,6.77
2017-07-21T19:37:15.905Z,6.17
2017-07-21T19:39:43.438Z,6.20
2017-07-21T19:42:11.235Z,6.80
2017-07-21T19:44:38.747Z,6.23
2017-07-21T19:47:06.266Z,7.57
2017-07-21T19:49:33.793Z,6.97
2017-07-21T19:52:01.300Z,7.57
2017-07-21T19:54:29.089Z,6.03
2017-07-21T19:56:56.606Z,7.27
2017-07-21T19:59:24.120Z,6.57
2017-07-21T20:01:51.652Z,6.80
2017-07-21T20:04:19.208Z,5.37
2017-07-21T20:06:47.017Z,5.60
2017-07-21T20:09:14.526Z,6.83
2017-07-21T20:11:42.056Z,6.50
2017-07-21T20:14:09.585Z,7.70
2017-07-21T20:16:37.111Z,13.90
2017-07-21T20:19:04.916Z,11.90
2017-07-21T20:21:32.426Z,10.97
2017-07-21T20:23:59.959Z,9.83
2017-07-21T20:26:27.520Z,9.00
2017-07-21T20:28:55.060Z,8.30
2017-07-21T20:31:22.836Z,6.80
2017-07-21T20:33:50.443Z,7.43
2017-07-21T20:36:17.989Z,7.17
2017-07-21T20:38:45.533Z,7.80
2017-07-21T20:41:13.061Z,8.50
2017-07-21T20:43:40.886Z,8.57
2017-07-21T20:46:08.406Z,7.67
2017-07-21T20:48:35.926Z,8.90
2017-07-21T20:51:03.439Z,7.67
2017-07-21T20:53:30.942Z,9.07
2017-07-21T20:55:58.753Z,9.43
2017-07-21T20:58:26.275Z,8.63
2017-07-21T21:00:53.816Z,8.80
2017-07-21T21:03:21.445Z,9.97
2017-07-21T21:05:48.974Z,9.93
2017-07-21T21:08:16.790Z,9.90
2017-07-21T21:10:45.214Z,9.93
2017-07-21T21:13:12.732Z,7.63
2017-07-21T21:15:40.264Z,11.43
2017-07-21T21:18:08.130Z,12.30
2017-07-21T21:20:35.930Z,9.57
2017-07-21T21:23:03.452Z,9.83
2017-07-21T21:25:30.959Z,10.33
2017-07-21T21:27:58.843Z,10.80
2017-07-21T21:30:26.350Z,8.93
2017-07-21T21:32:54.146Z,10.33
2017-07-21T21:35:21.666Z,9.93
2017-07-21T21:38:03.097Z,11.53
2017-07-21T21:40:31.213Z,9.33
2017-07-21T21:42:58.997Z,10.77
2017-07-21T21:45:26.506Z,9.93
2017-07-21T21:47:54.019Z,9.00
2017-07-21T21:50:24.329Z,9.33
2017-07-21T21:52:52.062Z,10.30
2017-07-21T21:55:26.590Z,9.30
2017-07-21T21:57:55.197Z,9.07
2017-07-21T22:00:22.786Z,9.23
2017-07-21T22:02:50.420Z,8.87
2017-07-21T22:05:18.049Z,9.53
2017-07-21T22:07:48.689Z,9.23
2017-07-21T22:10:16.227Z,7.77
2017-07-21T22:12:44.825Z,8.80
2017-07-21T22:15:38.365Z,9.40
2017-07-21T22:18:06.563Z,9.10
2017-07-21T22:20:34.663Z,9.83
2017-07-21T22:23:02.292Z,9.20
2017-07-21T22:25:30.813Z,8.90
2017-07-21T22:27:58.330Z,8.27
2017-07-21T22:30:25.940Z,8.97
2017-07-21T22:32:53.771Z,10.03
2017-07-21T22:35:21.303Z,8.73
2017-07-21T22:37:48.840Z,8.97
2017-07-21T22:40:16.361Z,8.27
2017-07-21T22:42:44.023Z,10.43
2017-07-21T22:45:11.919Z,7.40
2017-07-21T22:47:39.539Z,9.73
2017-07-21T22:50:07.067Z,10.53
2017-07-21T23:12:45.515Z,8.23
2017-07-21T23:15:13.047Z,10.23
2017-07-21T23:17:43.135Z,9.43
2017-07-21T23:20:10.697Z,8.33
2017-07-21T23:22:43.064Z,8.90
2017-07-21T23:25:10.578Z,18.40
2017-07-21T23:27:38.086Z,10.53
2017-07-21T23:30:07.066Z,9.23
2017-07-21T23:32:34.594Z,8.73
2017-07-21T23:35:02.386Z,9.27
2017-07-21T23:37:30.189Z,10.70
2017-07-21T23:39:57.722Z,9.77
2017-07-21T23:42:25.251Z,8.67
2017-07-21T23:44:52.772Z,10.30
2017-07-21T23:47:20.540Z,9.47
2017-07-21T23:49:48.073Z,9.60
2017-07-21T23:52:15.619Z,9.43
2017-07-21T23:54:43.139Z,10.73
2017-07-21T23:57:10.687Z,9.37
2017-07-21T23:59:38.487Z,9.70
